Time;durP1;ratioP1;P1;durP2;ratioP2;P2;SDS_P1;SDS_P2;PMS_P1;PMS_P2;Temp;Humidity;BMP_temperature;BMP_pressure;BME280_temperature;BME280_humidity;BME280_pressure;Samples;Min_cycle;Max_cycle;Signal;HPM_P1;HPM_P2
2023/08/15 00:02:24;;;;;;;;;;;;;;;19.01;72.06;101489.26;104582;1291;74421;-89
2023/08/15 00:06:13;;;;;;;;;;;;;;;19.03;71.99;101494.94;104389;1289;125361;-90
2023/08/15 00:09:17;;;;;;;;;;;;;;;19.05;72.13;101496.73;104557;1289;60451;-91
2023/08/15 00:12:01;;;;;;;;;;;;;;;19.07;72.04;101495.66;104678;1288;125084;-91
2023/08/15 00:14:29;;;;;;;;;;;;;;;19.09;72.04;101493.17;104488;1288;67197;-92
2023/08/15 00:17:19;;;;;;;;;;;;;;;19.11;72.09;101500.66;104563;1293;72837;-92
2023/08/15 00:19:53;;;;;;;;;;;;;;;19.13;72.14;101499.94;104663;1294;125168;-92
2023/08/15 00:22:30;;;;;;;;;;;;;;;19.14;71.99;101499.40;104863;1294;60288;-92
2023/08/15 00:24:57;;;;;;;;;;;;;;;19.15;71.99;101496.55;104704;1291;124669;-92
2023/08/15 00:31:39;;;;;;;;;;;;;;;19.16;71.94;101493.36;104739;1289;124765;-93
2023/08/15 00:34:31;;;;;;;;;;;;;;;19.14;71.99;101492.81;104896;1292;61466;-94
2023/08/15 00:37:18;;;;;;;;;;;;;;;19.12;71.94;101489.27;105017;1283;124803;-92
2023/08/15 00:40:06;;;;;;;;;;;;;;;19.09;71.96;101489.80;105538;1276;74167;-89
2023/08/15 00:43:30;;;;;;;;;;;;;;;19.09;72.01;101485.34;105588;1279;124884;-89
2023/08/15 00:46:38;;;;;;;;;;;;;;;19.09;71.97;101487.84;105798;1273;72474;-90
2023/08/15 00:49:28;;;;;;;;;;;;;;;19.10;71.93;101491.75;106178;1271;124516;-90
2023/08/15 00:51:57;;;;;;;;;;;;;;;19.09;71.98;101485.88;106319;1269;60379;-89
2023/08/15 00:54:26;;;;;;;;;;;;;;;19.08;71.91;101477.88;106153;1269;124556;-90
2023/08/15 00:57:06;;;;;;;;;;;;;;;19.04;71.97;101476.45;106357;1270;65680;-88
2023/08/15 00:59:40;;;;;;;;;;;;;;;19.02;72.09;101480.70;106569;1268;70812;-89
2023/08/15 01:02:13;;;;;;;;;;;;;;;18.98;72.05;101484.25;106438;1270;60517;-91
2023/08/15 01:04:50;;;;;;;;;;;;;;;18.97;72.18;101481.40;106355;1274;61088;-89
2023/08/15 01:07:19;;;;;;;;;;;;;;;18.96;72.22;101478.92;106324;1262;124477;-90
2023/08/15 01:09:55;;;;;;;;;;;;;;;18.94;72.29;101471.27;106939;1260;68418;-87
2023/08/15 01:12:31;;;;;;;;;;;;;;;18.93;72.40;101468.42;106752;1260;125480;-89
2023/08/15 01:15:06;;;;;;;;;;;;;;;18.92;72.43;101458.98;106962;1262;60462;-88
2023/08/15 01:17:45;;;;;;;;;;;;;;;18.92;72.53;101461.83;107132;1264;60119;-89
2023/08/15 01:20:16;;;;;;;;;;;;;;;18.93;72.60;101464.68;107280;1264;74443;-88
2023/08/15 01:22:52;;;;;;;;;;;;;;;18.95;72.62;101465.04;107052;1260;65609;-88
2023/08/15 01:25:19;;;;;;;;;;;;;;;18.98;72.61;101462.56;106913;1263;124413;-88
2023/08/15 01:27:47;;;;;;;;;;;;;;;18.99;72.53;101454.91;106792;1260;61025;-88
2023/08/15 01:30:28;;;;;;;;;;;;;;;18.98;72.57;101454.38;106800;1262;124603;-88
2023/08/15 01:33:10;;;;;;;;;;;;;;;18.98;72.53;101457.58;107142;1261;73923;-88
2023/08/15 01:35:51;;;;;;;;;;;;;;;18.97;72.62;101455.08;106861;1267;66212;-89
2023/08/15 01:38:53;;;;;;;;;;;;;;;18.97;72.58;101456.67;106737;1264;72795;-87
2023/08/15 01:41:27;;;;;;;;;;;;;;;18.95;72.60;101454.20;106743;1262;60445;-90
2023/08/15 01:44:06;;;;;;;;;;;;;;;18.95;72.66;101454.38;106606;1262;124936;-90
2023/08/15 01:46:33;;;;;;;;;;;;;;;18.94;72.68;101454.90;107179;1262;73637;-88
2023/08/15 01:49:03;;;;;;;;;;;;;;;18.92;72.70;101445.65;107288;1261;124440;-88
2023/08/15 01:51:36;;;;;;;;;;;;;;;18.91;72.73;101439.42;106906;1259;72490;-88
2023/08/15 01:54:03;;;;;;;;;;;;;;;18.90;72.82;101441.56;106835;1261;124636;-86
2023/08/15 01:56:33;;;;;;;;;;;;;;;18.90;72.82;101443.34;107297;1261;59205;-89
2023/08/15 01:59:17;;;;;;;;;;;;;;;18.89;72.92;101446.89;107139;1261;74424;-87
2023/08/15 02:02:16;;;;;;;;;;;;;;;18.89;72.93;101443.33;107025;1260;123504;-87
2023/08/15 02:11:11;;;;;;;;;;;;;;;18.89;72.92;101429.46;107412;1263;62032;-93
2023/08/15 02:20:50;;;;;;;;;;;;;;;18.88;72.98;101431.59;107040;1262;73869;-90
2023/08/15 02:23:19;;;;;;;;;;;;;;;18.88;73.02;101443.50;106894;1262;60235;-86
2023/08/15 02:25:50;;;;;;;;;;;;;;;18.88;73.01;101450.60;107129;1266;125152;-86
2023/08/15 02:28:23;;;;;;;;;;;;;;;18.88;72.96;101455.06;107029;1262;73885;-85
2023/08/15 02:30:56;;;;;;;;;;;;;;;18.87;73.11;101452.41;107259;1260;125007;-86
2023/08/15 02:33:37;;;;;;;;;;;;;;;18.86;73.11;101452.05;106834;1266;72539;-86
2023/08/15 02:36:13;;;;;;;;;;;;;;;18.86;73.22;101452.58;106715;1262;124638;-86
2023/08/15 02:38:45;;;;;;;;;;;;;;;18.87;73.28;101455.25;107005;1261;60364;-86
2023/08/15 02:41:21;;;;;;;;;;;;;;;18.89;73.33;101458.45;106953;1261;72375;-88
2023/08/15 02:43:50;;;;;;;;;;;;;;;18.93;73.36;101458.09;107387;1259;125219;-90
2023/08/15 02:46:17;;;;;;;;;;;;;;;18.98;73.42;101452.95;107174;1259;72735;-89
2023/08/15 02:48:47;;;;;;;;;;;;;;;19.03;73.37;101451.19;106994;1259;124548;-89
2023/08/15 02:51:41;;;;;;;;;;;;;;;19.10;73.32;101457.05;107072;1259;60434;-88
2023/08/15 02:54:37;;;;;;;;;;;;;;;19.18;73.28;101462.05;106992;1260;124599;-88
2023/08/15 02:57:09;;;;;;;;;;;;;;;19.27;73.16;101466.15;106882;1261;64903;-88
2023/08/15 02:59:39;;;;;;;;;;;;;;;19.34;73.09;101463.30;106838;1260;71345;-88
2023/08/15 03:02:09;;;;;;;;;;;;;;;19.40;73.03;101462.05;106848;1262;125778;-89
2023/08/15 03:04:39;;;;;;;;;;;;;;;19.46;72.99;101463.84;107041;1262;60434;-89
2023/08/15 03:07:07;;;;;;;;;;;;;;;19.51;73.00;101465.25;106985;1262;124953;-89
2023/08/15 03:09:38;;;;;;;;;;;;;;;19.54;72.88;101461.15;107299;1260;67013;-90
2023/08/15 03:12:05;;;;;;;;;;;;;;;19.57;72.86;101462.77;107266;1261;72405;-87
2023/08/15 03:14:39;;;;;;;;;;;;;;;19.58;72.79;101459.02;106965;1261;61584;-88
2023/08/15 03:17:21;;;;;;;;;;;;;;;19.60;72.78;101463.11;106991;1262;59264;-89
2023/08/15 03:20:09;;;;;;;;;;;;;;;19.56;72.81;101458.14;106770;1262;124781;-88
2023/08/15 03:22:36;;;;;;;;;;;;;;;19.53;72.84;101456.00;107004;1261;67155;-87
2023/08/15 03:25:03;;;;;;;;;;;;;;;19.51;72.87;101454.76;106905;1260;124427;-88
2023/08/15 03:27:35;;;;;;;;;;;;;;;19.49;73.02;101453.69;106890;1260;60471;-88
2023/08/15 03:30:02;;;;;;;;;;;;;;;19.49;73.08;101453.33;107303;1261;60452;-88
2023/08/15 03:32:56;;;;;;;;;;;;;;;19.47;73.11;101451.73;107068;1260;124220;-91
2023/08/15 03:35:42;;;;;;;;;;;;;;;19.46;73.17;101452.98;106991;1260;67087;-90
2023/08/15 03:38:16;;;;;;;;;;;;;;;19.45;73.08;101453.16;107085;1260;124018;-89
2023/08/15 03:40:46;;;;;;;;;;;;;;;19.43;72.93;101448.17;107261;1260;60305;-88
2023/08/15 03:43:46;;;;;;;;;;;;;;;19.40;72.87;101448.54;107018;1262;124371;-90
2023/08/15 03:47:28;;;;;;;;;;;;;;;19.40;73.04;101444.26;106733;1267;72684;-90
2023/08/15 03:50:04;;;;;;;;;;;;;;;19.73;73.80;101445.30;106621;1265;124040;-90
2023/08/15 03:52:34;;;;;;;;;;;;;;;20.19;73.71;101448.23;106672;1267;72483;-89
2023/08/15 03:55:02;;;;;;;;;;;;;;;20.44;72.72;101449.38;106772;1265;124564;-87
2023/08/15 03:57:30;;;;;;;;;;;;;;;20.37;71.88;101447.98;106842;1265;61476;-87
2023/08/15 03:59:58;;;;;;;;;;;;;;;20.20;71.61;101451.43;106647;1269;73846;-86
2023/08/15 04:02:33;;;;;;;;;;;;;;;20.05;71.59;101447.74;106593;1265;124119;-87
2023/08/15 04:05:03;;;;;;;;;;;;;;;19.94;71.63;101449.20;106756;1265;73126;-89
2023/08/15 04:07:30;;;;;;;;;;;;;;;19.85;71.84;101448.16;106530;1265;124366;-88
2023/08/15 04:10:04;;;;;;;;;;;;;;;19.77;71.86;101445.68;106876;1267;59917;-88
2023/08/15 04:12:40;;;;;;;;;;;;;;;19.70;71.94;101444.05;106875;1262;124500;-87
2023/08/15 04:15:07;;;;;;;;;;;;;;;19.68;72.15;101446.73;106946;1262;64638;-87
2023/08/15 04:17:50;;;;;;;;;;;;;;;19.67;72.18;101442.98;106812;1262;72602;-87
2023/08/15 04:20:24;;;;;;;;;;;;;;;19.69;72.38;101440.48;107032;1266;124928;-90
2023/08/15 04:23:10;;;;;;;;;;;;;;;19.77;72.50;101440.69;107081;1261;59972;-89
2023/08/15 04:25:47;;;;;;;;;;;;;;;20.67;74.62;101441.60;106706;1261;124862;-89
2023/08/15 04:28:20;;;;;;;;;;;;;;;22.20;74.07;101431.52;106812;1261;66319;-89
2023/08/15 04:30:49;;;;;;;;;;;;;;;23.66;72.54;101426.46;106642;1262;125168;-88
2023/08/15 04:33:19;;;;;;;;;;;;;;;25.04;70.99;101420.33;106704;1267;60469;-88
2023/08/15 04:36:03;;;;;;;;;;;;;;;26.38;68.93;101419.98;106932;1261;59243;-88
2023/08/15 04:38:39;;;;;;;;;;;;;;;27.75;66.78;101424.73;106716;1264;124612;-87
2023/08/15 04:41:17;;;;;;;;;;;;;;;28.81;64.61;101421.61;106829;1262;60485;-88
2023/08/15 04:44:07;;;;;;;;;;;;;;;29.80;62.46;101416.02;106687;1266;124896;-88
2023/08/15 04:46:45;;;;;;;;;;;;;;;30.78;60.47;101416.33;106853;1261;60388;-89
2023/08/15 04:49:16;;;;;;;;;;;;;;;31.59;58.54;101418.27;106813;1260;124035;-89
2023/08/15 04:51:46;;;;;;;;;;;;;;;32.35;56.99;101419.98;106845;1262;66086;-90
2023/08/15 04:54:34;;;;;;;;;;;;;;;33.06;55.05;101424.52;106733;1260;124705;-89
2023/08/15 04:57:10;;;;;;;;;;;;;;;33.64;53.29;101423.25;106900;1267;63322;-88
2023/08/15 05:00:10;;;;;;;;;;;;;;;34.07;51.99;101431.36;107083;1264;60566;-89
2023/08/15 05:02:50;;;;;;;;;;;;;;;34.56;50.59;101427.14;106794;1267;60545;-90
2023/08/15 05:05:19;;;;;;;;;;;;;;;34.99;49.15;101425.41;106777;1265;64286;-88
2023/08/15 05:07:47;;;;;;;;;;;;;;;35.33;48.05;101427.17;106794;1268;124166;-88
2023/08/15 05:10:14;;;;;;;;;;;;;;;35.75;47.08;101427.54;106871;1265;63922;-90
2023/08/15 05:12:41;;;;;;;;;;;;;;;36.28;46.42;101428.00;106692;1268;124185;-86
2023/08/15 05:18:48;;;;;;;;;;;;;;;37.27;44.40;101443.27;106519;1267;65145;-90
2023/08/15 05:21:21;;;;;;;;;;;;;;;37.60;43.22;101442.80;106526;1268;60270;-90
2023/08/15 05:23:49;;;;;;;;;;;;;;;37.96;42.41;101438.46;106516;1270;63882;-85
2023/08/15 05:26:16;;;;;;;;;;;;;;;38.26;41.90;101436.25;106165;1270;123942;-87
2023/08/15 05:28:50;;;;;;;;;;;;;;;38.44;41.06;101434.23;106348;1272;60617;-86
2023/08/15 05:31:31;;;;;;;;;;;;;;;38.36;40.28;101439.27;106202;1268;124123;-87
2023/08/15 05:34:04;;;;;;;;;;;;;;;37.64;39.65;101434.92;106436;1268;59156;-87
2023/08/15 05:36:37;;;;;;;;;;;;;;;36.46;39.43;101437.73;106408;1270;124579;-85
2023/08/15 05:39:31;;;;;;;;;;;;;;;35.26;39.74;101436.67;106650;1271;60636;-91
2023/08/15 05:41:59;;;;;;;;;;;;;;;34.10;40.30;101435.66;106954;1267;60428;-88
2023/08/15 05:44:37;;;;;;;;;;;;;;;33.23;41.23;101439.54;106553;1264;124128;-90
2023/08/15 05:47:04;;;;;;;;;;;;;;;32.55;42.05;101442.48;106805;1264;60241;-89
2023/08/15 05:49:56;;;;;;;;;;;;;;;32.01;42.74;101440.92;106570;1264;122966;-89
2023/08/15 05:52:34;;;;;;;;;;;;;;;31.42;43.52;101438.38;106634;1264;60334;-85
2023/08/15 05:55:03;;;;;;;;;;;;;;;31.00;44.28;101430.19;106484;1264;123637;-87
2023/08/15 05:57:41;;;;;;;;;;;;;;;30.61;44.71;101427.70;106718;1267;64199;-86
2023/08/15 06:00:25;;;;;;;;;;;;;;;30.24;45.28;101423.23;106711;1265;59334;-88
2023/08/15 06:03:05;;;;;;;;;;;;;;;29.93;45.81;101423.77;106671;1264;64132;-84
2023/08/15 06:05:33;;;;;;;;;;;;;;;29.64;46.28;101424.14;106887;1259;60274;-85
2023/08/15 06:08:10;;;;;;;;;;;;;;;29.43;46.74;101428.47;107004;1260;124358;-84
2023/08/15 06:10:39;;;;;;;;;;;;;;;29.24;47.24;101427.48;107307;1261;65319;-83
2023/08/15 06:13:12;;;;;;;;;;;;;;;29.04;47.62;101431.90;106901;1261;124847;-83
2023/08/15 06:15:58;;;;;;;;;;;;;;;28.85;47.99;101428.87;106824;1264;64204;-84
2023/08/15 06:18:37;;;;;;;;;;;;;;;28.59;48.42;101429.38;106823;1264;124342;-85
2023/08/15 06:21:41;;;;;;;;;;;;;;;28.43;48.95;101428.73;106945;1260;60452;-89
2023/08/15 06:24:16;;;;;;;;;;;;;;;28.25;49.43;101428.33;107121;1260;64212;-89
2023/08/15 06:26:46;;;;;;;;;;;;;;;28.05;49.75;101432.31;106794;1261;124301;-88
2023/08/15 06:29:28;;;;;;;;;;;;;;;27.87;50.08;101423.03;106911;1263;62920;-88
2023/08/15 06:32:32;;;;;;;;;;;;;;;27.66;50.61;101420.20;106787;1261;124855;-89
2023/08/15 06:35:06;;;;;;;;;;;;;;;27.37;51.16;101409.65;107068;1260;60148;-85
2023/08/15 06:38:03;;;;;;;;;;;;;;;27.15;51.74;101407.15;107033;1260;124184;-85
2023/08/15 06:40:45;;;;;;;;;;;;;;;26.99;52.08;101401.92;107036;1261;65831;-85
2023/08/15 06:43:22;;;;;;;;;;;;;;;26.96;52.70;101409.93;107042;1260;124036;-85
2023/08/15 06:45:56;;;;;;;;;;;;;;;26.92;52.94;101415.09;107103;1262;60320;-85
2023/08/15 06:48:23;;;;;;;;;;;;;;;26.89;53.25;101415.36;106820;1260;124096;-84
2023/08/15 06:51:10;;;;;;;;;;;;;;;26.85;53.26;101413.16;107002;1262;73613;-86
2023/08/15 06:53:49;;;;;;;;;;;;;;;26.75;53.65;101413.84;107118;1261;65552;-86
2023/08/15 06:56:17;;;;;;;;;;;;;;;26.75;54.06;101411.14;107057;1261;124644;-84
2023/08/15 06:58:46;;;;;;;;;;;;;;;26.77;54.24;101413.27;107023;1261;59602;-84
2023/08/15 07:01:20;;;;;;;;;;;;;;;26.82;54.46;101406.61;106999;1260;124506;-86
2023/08/15 07:04:06;;;;;;;;;;;;;;;26.85;54.66;101404.69;107025;1260;72655;-87
2023/08/15 07:06:39;;;;;;;;;;;;;;;26.89;54.73;101401.52;106980;1261;124177;-87
2023/08/15 07:09:09;;;;;;;;;;;;;;;26.82;54.67;101402.10;107131;1261;71919;-86
2023/08/15 07:11:42;;;;;;;;;;;;;;;26.81;55.01;101405.73;107268;1260;60526;-83
2023/08/15 07:14:09;;;;;;;;;;;;;;;26.84;55.23;101406.34;107177;1261;124118;-87
2023/08/15 07:16:42;;;;;;;;;;;;;;;26.88;55.40;101401.34;107118;1265;74204;-90
2023/08/15 07:19:10;;;;;;;;;;;;;;;26.92;55.49;101399.80;106945;1261;124168;-85
2023/08/15 07:21:45;;;;;;;;;;;;;;;26.90;55.51;101393.73;107127;1261;72797;-88
2023/08/15 07:24:25;;;;;;;;;;;;;;;26.93;55.74;101392.91;107363;1259;60501;-88
2023/08/15 07:27:00;;;;;;;;;;;;;;;27.01;55.85;101392.86;107176;1261;59268;-90
2023/08/15 07:29:58;;;;;;;;;;;;;;;27.08;55.75;101388.27;107088;1260;74714;-89
2023/08/15 07:32:29;;;;;;;;;;;;;;;27.14;55.73;101385.71;106907;1261;124109;-91
2023/08/15 07:34:56;;;;;;;;;;;;;;;27.24;55.81;101373.17;107099;1265;71316;-87
2023/08/15 07:37:31;;;;;;;;;;;;;;;27.35;55.76;101371.34;107018;1261;124110;-86
2023/08/15 07:40:07;;;;;;;;;;;;;;;27.48;55.74;101366.18;107171;1261;59929;-87
2023/08/15 07:42:35;;;;;;;;;;;;;;;27.62;55.49;101366.61;107178;1260;124376;-85
2023/08/15 07:45:07;;;;;;;;;;;;;;;27.69;55.33;101367.22;106994;1260;66626;-86
2023/08/15 07:47:36;;;;;;;;;;;;;;;27.82;55.30;101365.88;107195;1260;72525;-86
2023/08/15 07:50:21;;;;;;;;;;;;;;;27.94;55.45;101370.12;106878;1262;124311;-84
2023/08/15 07:52:55;;;;;;;;;;;;;;;28.04;55.31;101373.53;107092;1261;58751;-92
2023/08/15 07:55:32;;;;;;;;;;;;;;;28.15;55.04;101374.02;107201;1262;124137;-87
2023/08/15 07:58:01;;;;;;;;;;;;;;;28.28;54.92;101373.89;107172;1264;60480;-85
2023/08/15 08:00:50;;;;;;;;;;;;;;;28.47;54.83;101368.27;107185;1262;124314;-84
2023/08/15 08:03:24;;;;;;;;;;;;;;;28.71;54.79;101370.41;107364;1260;60489;-86
2023/08/15 08:05:59;;;;;;;;;;;;;;;28.92;54.58;101365.02;107105;1262;60337;-85
2023/08/15 08:08:32;;;;;;;;;;;;;;;29.09;54.13;101360.70;107032;1262;124024;-87
2023/08/15 08:11:29;;;;;;;;;;;;;;;29.19;53.82;101359.21;107114;1266;61062;-86
2023/08/15 08:14:09;;;;;;;;;;;;;;;29.29;53.41;101358.77;107006;1261;124357;-87
2023/08/15 08:16:38;;;;;;;;;;;;;;;29.39;53.50;101359.06;107082;1263;59246;-86
2023/08/15 08:19:16;;;;;;;;;;;;;;;29.53;53.24;101354.29;106810;1261;124487;-83
2023/08/15 08:22:02;;;;;;;;;;;;;;;29.66;52.96;101352.95;106946;1261;64031;-87
2023/08/15 08:24:54;;;;;;;;;;;;;;;29.78;52.90;101356.08;107117;1262;124206;-89
2023/08/15 08:27:30;;;;;;;;;;;;;;;29.94;52.63;101352.63;106947;1262;65000;-88
2023/08/15 08:30:11;;;;;;;;;;;;;;;30.13;52.60;101352.83;106913;1263;58521;-86
2023/08/15 08:32:38;;;;;;;;;;;;;;;30.44;52.61;101347.91;106845;1264;123356;-84
2023/08/15 08:35:14;;;;;;;;;;;;;;;30.77;52.23;101349.20;106954;1262;64015;-84
2023/08/15 08:38:06;;;;;;;;;;;;;;;31.09;51.80;101348.86;106816;1262;124265;-87
2023/08/15 08:40:47;;;;;;;;;;;;;;;31.38;51.16;101347.70;106609;1268;62811;-86
2023/08/15 08:43:20;;;;;;;;;;;;;;;31.58;50.80;101344.14;106286;1268;124492;-85
2023/08/15 08:45:58;;;;;;;;;;;;;;;31.69;50.16;101341.56;106724;1267;60560;-86
2023/08/15 08:48:25;;;;;;;;;;;;;;;31.78;49.97;101340.15;106668;1268;65468;-85
2023/08/15 08:50:52;;;;;;;;;;;;;;;31.89;49.57;101339.39;106584;1271;60365;-86
2023/08/15 08:53:22;;;;;;;;;;;;;;;31.96;49.33;101340.78;106474;1270;62471;-84
2023/08/15 08:55:55;;;;;;;;;;;;;;;32.03;49.00;101340.64;106423;1271;124077;-86
2023/08/15 08:58:24;;;;;;;;;;;;;;;32.09;48.78;101338.67;106578;1267;60529;-91
2023/08/15 09:00:52;;;;;;;;;;;;;;;32.12;48.46;101335.08;106623;1267;124369;-90
2023/08/15 09:03:19;;;;;;;;;;;;;;;32.10;48.48;101334.05;106537;1272;60350;-88
2023/08/15 09:05:47;;;;;;;;;;;;;;;32.21;48.38;101332.35;106882;1268;62934;-85
2023/08/15 09:08:21;;;;;;;;;;;;;;;32.37;48.06;101326.94;106486;1268;124045;-90
2023/08/15 09:10:48;;;;;;;;;;;;;;;32.54;47.70;101330.11;106842;1267;60532;-84
2023/08/15 09:13:25;;;;;;;;;;;;;;;32.75;47.02;101326.88;106533;1268;124177;-83
2023/08/15 09:15:56;;;;;;;;;;;;;;;32.98;46.44;101322.45;106746;1271;60388;-84
2023/08/15 09:18:32;;;;;;;;;;;;;;;33.15;46.16;101324.02;106814;1262;64025;-84
2023/08/15 09:21:05;;;;;;;;;;;;;;;33.22;45.44;101327.80;106959;1262;60292;-84
2023/08/15 09:23:41;;;;;;;;;;;;;;;33.18;45.01;101328.54;107078;1261;61444;-85
2023/08/15 09:26:12;;;;;;;;;;;;;;;33.10;44.65;101323.39;107003;1262;123959;-81
2023/08/15 09:28:40;;;;;;;;;;;;;;;32.96;44.54;101320.55;107558;1259;60624;-80
2023/08/15 09:31:10;;;;;;;;;;;;;;;32.83;44.62;101319.54;107209;1264;124146;-81
2023/08/15 09:33:38;;;;;;;;;;;;;;;32.68;44.47;101315.70;106993;1261;60602;-83
2023/08/15 09:36:06;;;;;;;;;;;;;;;32.52;44.30;101311.85;107009;1266;60483;-85
2023/08/15 09:38:46;;;;;;;;;;;;;;;32.37;43.95;101311.28;106697;1261;124460;-83
2023/08/15 09:41:13;;;;;;;;;;;;;;;32.20;43.80;101305.70;107030;1261;67088;-84
2023/08/15 09:44:05;;;;;;;;;;;;;;;32.07;43.66;101307.55;107216;1262;123965;-86
2023/08/15 09:49:24;;;;;;;;;;;;;;;31.83;43.47;101307.75;106996;1259;124057;-83
2023/08/15 09:52:19;;;;;;;;;;;;;;;31.74;43.28;101305.88;107109;1264;63978;-85
2023/08/15 09:54:48;;;;;;;;;;;;;;;31.65;43.15;101301.64;107007;1261;124234;-83
2023/08/15 09:57:19;;;;;;;;;;;;;;;31.60;42.91;101299.05;107187;1262;64121;-85
2023/08/15 09:59:49;;;;;;;;;;;;;;;31.54;42.56;101299.71;107190;1261;60439;-85
2023/08/15 10:02:43;;;;;;;;;;;;;;;31.49;42.20;101300.55;106786;1262;124139;-84
2023/08/15 10:05:17;;;;;;;;;;;;;;;31.45;42.08;101302.75;106957;1260;66504;-82
2023/08/15 10:07:47;;;;;;;;;;;;;;;31.42;41.89;101298.55;106904;1262;124020;-83
2023/08/15 10:14:02;;;;;;;;;;;;;;;31.37;41.28;101297.17;107603;1261;124075;-94
2023/08/15 10:16:33;;;;;;;;;;;;;;;31.35;40.95;101294.56;107079;1261;59101;-91
2023/08/15 10:29:09;;;;;;;;;;;;;;;31.35;40.17;101287.31;108252;1260;59746;-92
2023/08/15 10:51:10;;;;;;;;;;;;;;;;;;;;;
2023/08/15 10:53:42;;;;;;;;;;;;;;;31.39;39.18;101292.90;108098;1266;59159;-87
2023/08/15 10:56:37;;;;;;;;;;;;;;;31.43;39.39;101295.39;108321;1262;124047;-86
2023/08/15 10:59:19;;;;;;;;;;;;;;;31.46;39.52;101294.69;108604;1263;58183;-88
2023/08/15 11:01:49;;;;;;;;;;;;;;;31.49;39.66;101290.21;108419;1265;124425;-87
2023/08/15 11:04:22;;;;;;;;;;;;;;;31.54;39.82;101289.56;108589;1260;64402;-88
2023/08/15 11:06:58;;;;;;;;;;;;;;;31.60;39.61;101289.08;108496;1260;124253;-88
2023/08/15 11:09:45;;;;;;;;;;;;;;;31.66;39.16;101288.42;108682;1260;64022;-87
2023/08/15 11:12:18;;;;;;;;;;;;;;;31.68;38.90;101295.88;108474;1266;59362;-88
2023/08/15 11:14:51;;;;;;;;;;;;;;;31.70;39.06;101289.60;108382;1260;124623;-86
2023/08/15 11:17:20;;;;;;;;;;;;;;;31.73;38.65;101285.79;108436;1259;66506;-87
2023/08/15 11:19:47;;;;;;;;;;;;;;;31.76;38.51;101282.91;108673;1268;124383;-88
2023/08/15 11:22:22;;;;;;;;;;;;;;;31.79;38.57;101280.05;108522;1260;62814;-85
2023/08/15 11:24:53;;;;;;;;;;;;;;;31.83;38.54;101277.67;108476;1260;124628;-87
2023/08/15 11:27:29;;;;;;;;;;;;;;;31.86;38.53;101282.02;108610;1259;58231;-87
2023/08/15 11:30:11;;;;;;;;;;;;;;;31.89;38.56;101287.45;108491;1259;66529;-88
2023/08/15 11:32:44;;;;;;;;;;;;;;;31.93;38.59;101286.15;108260;1260;124470;-87
2023/08/15 11:35:21;;;;;;;;;;;;;;;31.95;38.43;101277.33;108480;1260;66584;-87
2023/08/15 11:38:01;;;;;;;;;;;;;;;31.97;37.75;101271.40;108407;1259;124610;-87
2023/08/15 11:44:17;;;;;;;;;;;;;;;32.03;37.27;101266.39;107878;1267;464496;-88
2023/08/15 11:46:50;;;;;;;;;;;;;;;32.06;37.28;101265.15;108436;1268;58313;-87
2023/08/15 11:49:36;;;;;;;;;;;;;;;32.10;37.47;101267.60;108361;1262;124611;-87
2023/08/15 11:52:30;;;;;;;;;;;;;;;32.15;37.48;101269.69;108532;1263;58293;-89
2023/08/15 11:55:06;;;;;;;;;;;;;;;32.20;37.35;101268.86;108405;1262;124799;-87
2023/08/15 11:57:37;;;;;;;;;;;;;;;32.25;37.28;101266.25;108681;1261;64181;-85
2023/08/15 12:00:18;;;;;;;;;;;;;;;32.27;37.05;101263.77;108442;1266;58621;-83
2023/08/15 12:02:52;;;;;;;;;;;;;;;32.28;36.94;101260.95;108222;1267;124318;-85
2023/08/15 12:05:25;;;;;;;;;;;;;;;32.31;36.99;101258.95;108429;1263;58278;-86
2023/08/15 12:07:55;;;;;;;;;;;;;;;32.35;37.17;101254.19;108310;1263;124665;-86
2023/08/15 12:10:25;;;;;;;;;;;;;;;32.38;36.94;101255.45;108548;1267;65849;-84
2023/08/15 12:13:03;;;;;;;;;;;;;;;32.41;37.04;101255.85;108552;1261;124756;-88
2023/08/15 12:15:45;;;;;;;;;;;;;;;32.44;36.82;101256.59;108535;1270;73283;-89
2023/08/15 12:18:15;;;;;;;;;;;;;;;32.45;36.67;101253.98;108540;1260;58551;-89
2023/08/15 12:20:51;;;;;;;;;;;;;;;32.46;36.75;101253.93;108493;1261;58244;-90
2023/08/15 12:23:25;;;;;;;;;;;;;;;32.47;36.84;101256.05;108590;1266;65260;-91
2023/08/15 12:26:04;;;;;;;;;;;;;;;32.47;36.67;101247.65;108535;1268;58348;-90
2023/08/15 12:28:56;;;;;;;;;;;;;;;32.50;36.62;101245.66;108494;1259;64736;-90
2023/08/15 12:31:29;;;;;;;;;;;;;;;32.53;36.56;101243.52;108366;1265;124645;-90
2023/08/15 12:34:29;;;;;;;;;;;;;;;32.55;36.52;101244.46;108471;1261;58796;-90
2023/08/15 12:37:04;;;;;;;;;;;;;;;32.57;36.44;101243.83;108578;1260;64915;-91
2023/08/15 12:39:32;;;;;;;;;;;;;;;32.59;36.58;101244.66;108546;1265;59487;-90
2023/08/15 12:42:08;;;;;;;;;;;;;;;32.60;36.53;101246.39;108378;1260;63944;-94
2023/08/15 12:44:36;;;;;;;;;;;;;;;32.60;36.39;101243.12;108490;1265;124400;-91
2023/08/15 12:47:03;;;;;;;;;;;;;;;32.61;36.43;101245.07;108646;1267;58635;-90
2023/08/15 12:49:33;;;;;;;;;;;;;;;32.63;36.39;101242.05;108349;1260;124625;-89
2023/08/15 12:52:04;;;;;;;;;;;;;;;32.65;36.47;101243.91;108703;1260;58574;-89
2023/08/15 12:54:31;;;;;;;;;;;;;;;32.68;36.43;101245.52;108579;1264;64497;-90
2023/08/15 12:56:58;;;;;;;;;;;;;;;32.71;36.44;101242.46;108562;1259;124365;-89
2023/08/15 12:59:39;;;;;;;;;;;;;;;32.73;36.56;101247.76;108575;1266;58560;-90
2023/08/15 13:02:20;;;;;;;;;;;;;;;32.76;36.58;101244.73;107691;1260;75547;-86
2023/08/15 13:05:20;;;;;;;;;;;;;;;32.79;36.57;101249.80;107069;1259;59282;-88
2023/08/15 13:11:28;;;;;;;;;;;;;;;32.83;36.68;101240.84;107025;1265;59021;-88
2023/08/15 13:13:58;;;;;;;;;;;;;;;32.84;36.73;101244.56;106825;1264;124385;-90
2023/08/15 13:19:33;;;;;;;;;;;;;;;32.88;36.38;101245.05;106944;1261;123989;-87
2023/08/15 13:22:24;;;;;;;;;;;;;;;32.89;36.55;101243.52;106811;1266;63856;-86
2023/08/15 13:25:06;;;;;;;;;;;;;;;32.91;36.60;101243.63;107367;1261;60399;-88
2023/08/15 13:27:41;;;;;;;;;;;;;;;32.91;36.69;101242.36;107138;1262;123775;-87
2023/08/15 13:33:38;;;;;;;;;;;;;;;32.94;36.56;101241.27;106892;1267;124142;-91
2023/08/15 13:36:05;;;;;;;;;;;;;;;32.92;36.53;101239.52;107013;1265;62676;-88
2023/08/15 13:38:32;;;;;;;;;;;;;;;32.93;36.51;101246.55;106920;1266;123993;-89
2023/08/15 13:41:05;;;;;;;;;;;;;;;32.92;36.52;101246.25;106966;1267;58918;-89
2023/08/15 13:43:40;;;;;;;;;;;;;;;32.92;36.65;101245.90;106777;1270;123354;-87
2023/08/15 13:46:09;;;;;;;;;;;;;;;32.92;36.74;101242.79;107049;1265;60592;-88
2023/08/15 13:48:44;;;;;;;;;;;;;;;32.94;36.72;101242.71;106707;1271;62998;-89
2023/08/15 13:54:37;;;;;;;;;;;;;;;32.97;36.95;101237.09;107079;1269;58525;-93
2023/08/15 13:57:30;;;;;;;;;;;;;;;;;;;;;
2023/08/15 14:00:19;;;;;;;;;;;;;;;33.00;37.12;101240.17;107355;1266;60259;-90
2023/08/15 14:02:57;;;;;;;;;;;;;;;32.99;37.01;101237.69;106868;1267;123950;-90
2023/08/15 14:08:30;;;;;;;;;;;;;;;32.99;36.86;101240.95;106814;1267;123971;-89
2023/08/15 14:11:25;;;;;;;;;;;;;;;32.98;36.83;101239.56;107283;1260;65628;-90
2023/08/15 14:13:59;;;;;;;;;;;;;;;32.96;36.96;101236.58;107100;1261;125343;-87
2023/08/15 14:16:35;;;;;;;;;;;;;;;32.95;36.87;101235.02;107207;1260;64326;-90
2023/08/15 14:19:02;;;;;;;;;;;;;;;32.94;36.85;101240.70;107337;1260;60429;-89
2023/08/15 14:21:40;;;;;;;;;;;;;;;32.94;36.69;101241.25;107165;1260;124060;-90
2023/08/15 14:24:17;;;;;;;;;;;;;;;32.91;36.73;101240.14;107366;1260;63831;-89
2023/08/15 14:27:04;;;;;;;;;;;;;;;32.92;36.76;101239.38;107986;1260;123946;-90
2023/08/15 14:29:33;;;;;;;;;;;;;;;32.92;36.68;101242.11;107133;1261;64180;-92
2023/08/15 14:32:14;;;;;;;;;;;;;;;32.90;36.62;101239.48;107125;1264;124405;-88